Flight Track Log - Related Links

Times and Time Zones

All times are in EDT time to prevent confusion due to time zone crossing. See the AWE1940 flight status page for this flight to view local times or setup timezone preferences in your user account.

Time Position Orientation Groundspeed Altitude Reporting Facility
EDT Latitude Longitude Course Direction KTS MPH feet Rate Location/Type
Fri 06:40:24 PM 29.9572 -95.3392 90° East 171 197 1,000  Level Houston Center
Fri 06:40:42 PM 29.9494 -95.3258 124° Southeast 173 199 1,600 2,203 Climbing Houston Center
Fri 06:41:43 PM 29.9347 -95.2553 104° East 229 264 3,900 1,548 Climbing Houston Center
Fri 06:42:15 PM 29.9378 -95.2250 83° East 238 274 4,000 774 Climbing Houston Center
Fri 06:42:45 PM 29.9439 -95.1744 82° East 269 310 4,700 1,645 Climbing Houston Center
Fri 06:43:00 PM 29.9834 -94.9418 90° East  Level FlightAware Approximate
Fri 06:43:17 PM 29.9472 -95.1419 83° East 259 298 5,700  Level Houston Center
Fri 06:43:46 PM 29.9508 -95.0892 85° East 269 310 7,400 2,710 Climbing Houston Center
Fri 06:44:00 PM 29.9834 -94.8113 90° East  Level FlightAware Approximate
Fri 06:44:19 PM 29.9500 -95.0542 92° East 271 312 8,500  Level Houston Center
Fri 06:45:00 PM 29.9833 -94.6808 90° East  Level FlightAware Approximate
Fri 06:45:21 PM 29.9406 -94.9433 96° East 289 333 11,100  Level Houston Center
Fri 06:46:23 PM 29.9347 -94.8303 93° East 351 404 12,600 1,887 Climbing Houston Center
Fri 06:47:25 PM 29.9289 -94.7106 93° East 370 426 15,000 2,081 Climbing Houston Center
Fri 06:48:27 PM 29.9464 -94.5858 81° East 396 456 16,900 1,645 Climbing Houston Center
Fri 06:49:29 PM 29.9631 -94.4603 81° East 408 470 18,400 1,742 Climbing Houston Center
Fri 06:50:31 PM 29.9856 -94.2964 81° East 429 494 20,500 1,645 Climbing Houston Center
Fri 06:51:33 PM 30.0047 -94.1547 81° East 444 511 21,800 1,500 Climbing Houston Center
Fri 06:52:35 PM 30.0244 -94.0081 81° East 460 529 23,600 1,935 Climbing Houston Center
Fri 06:53:37 PM 30.0442 -93.8669 81° East 451 519 25,800 1,984 Climbing Houston Center
Fri 06:54:39 PM 30.0625 -93.7261 81° East 448 516 27,700 1,403 Climbing Houston Center
Fri 06:55:41 PM 30.0794 -93.5906 82° East 436 502 28,700 1,113 Climbing Houston Center
Fri 06:56:43 PM 30.1000 -93.4225 82° East 445 512 30,000 1,113 Climbing Houston Center
Fri 06:57:45 PM 30.1189 -93.2806 81° East 452 520 31,000 1,065 Climbing Houston Center
Fri 06:58:47 PM 30.1364 -93.1389 82° East 451 519 32,200 968 Climbing Houston Center
Fri 06:59:49 PM 30.1614 -92.9994 78° East 448 516 33,000 387 Climbing Houston Center
Fri 07:00:51 PM 30.1958 -92.8319 77° East 449 517 33,000  Level Houston Center
Fri 07:01:53 PM 30.2231 -92.6869 78° East 460 529 33,000  Level Houston Center
Fri 07:02:55 PM 30.2514 -92.5453 77° East 456 525 33,000  Level Houston Center
Fri 07:03:57 PM 30.2789 -92.4014 77° East 458 527 33,000  Level Houston Center
Fri 07:04:59 PM 30.3042 -92.2567 79° East 461 531 33,000  Level Houston Center
Fri 07:06:01 PM 30.3375 -92.0850 77° East 459 528 33,000  Level Houston Center
Fri 07:07:03 PM 30.3656 -91.9394 77° East 462 532 33,000  Level Houston Center
Fri 07:08:05 PM 30.3925 -91.7950 78° East 463 533 33,000  Level Houston Center
Fri 07:09:07 PM 30.4217 -91.6397 78° East 464 534 33,000  Level Houston Center
Fri 07:10:09 PM 30.4483 -91.4964 78° East 458 527 33,000  Level Houston Center
Fri 07:11:10 PM 30.4756 -91.3500 78° East 464 534 33,000  Level Houston Center
Fri 07:12:12 PM 30.5378 -91.2256 60° Northeast 454 522 33,000  Level Houston Center
Fri 07:13:14 PM 30.6256 -91.1161 47° Northeast 458 527 33,000  Level Houston Center
Fri 07:14:16 PM 30.7111 -91.0092 47° Northeast 455 524 33,000  Level Houston Center
Fri 07:15:18 PM 30.8122 -90.8792 48° Northeast 449 517 33,000  Level Houston Center
Fri 07:16:20 PM 30.8975 -90.7714 47° Northeast 451 519 33,000  Level Houston Center
Fri 07:17:22 PM 30.9831 -90.6631 47° Northeast 452 520 33,000  Level Houston Center
Fri 07:18:24 PM 31.0669 -90.5556 48° Northeast 449 517 33,000  Level Houston Center
Fri 07:19:26 PM 31.1519 -90.4467 48° Northeast 451 519 33,000  Level Houston Center
Fri 07:20:28 PM 31.2378 -90.3383 47° Northeast 452 520 33,000  Level Houston Center
Fri 07:21:30 PM 31.3236 -90.2286 48° Northeast 454 522 33,000  Level Houston Center
Fri 07:22:32 PM 31.4244 -90.0972 48° Northeast 453 521 33,000  Level Houston Center
Fri 07:23:34 PM 31.5092 -89.9892 47° Northeast 451 519 33,000  Level Houston Center
Fri 07:24:36 PM 31.5917 -89.8775 49° Northeast 451 519 33,000  Level Houston Center
Fri 07:25:38 PM 31.6739 -89.7664 49° Northeast 450 518 33,000  Level Houston Center
Fri 07:26:40 PM 31.7561 -89.6561 49° Northeast 448 516 33,000  Level Houston Center
Fri 07:27:42 PM 31.8506 -89.5289 49° Northeast 447 514 33,000  Level Houston Center
Fri 07:28:44 PM 31.9272 -89.4247 49° Northeast 440 506 33,000  Level Memphis Center
Fri 07:29:44 PM 32.0058 -89.3161 50° Northeast 440 506 33,000  Level Memphis Center
Fri 07:30:44 PM 32.0842 -89.2000 51° Northeast 440 506 33,000  Level Memphis Center
Fri 07:31:44 PM 32.1369 -89.0619 66° East 440 506 33,000  Level Memphis Center
Fri 07:32:44 PM 32.1833 -88.9239 68° East 440 506 33,000  Level Memphis Center
Fri 07:33:44 PM 32.2319 -88.7831 68° East 450 518 33,000  Level Memphis Center
Fri 07:36:20 PM 32.3622 -88.4083 68° East 451 519 33,000  Level Atlanta Center
Fri 07:37:20 PM 32.4111 -88.2656 68° East 456 525 33,000  Level Atlanta Center
Fri 07:38:20 PM 32.4575 -88.1250 69° East 462 532 33,000  Level Atlanta Center
Fri 07:39:20 PM 32.5058 -87.9869 67° East 462 532 33,000  Level Atlanta Center
Fri 07:40:20 PM 32.5542 -87.8386 69° East 462 532 33,000  Level Atlanta Center
Fri 07:41:20 PM 32.5983 -87.6978 70° East 462 532 33,000 -450 Level Atlanta Center
Fri 07:42:20 PM 32.6461 -87.5592 68° East 462 532 32,100 -900 Descending Atlanta Center
Fri 07:43:20 PM 32.6917 -87.4178 69° East 456 525 31,200 -550 Descending Atlanta Center
Fri 07:44:20 PM 32.7375 -87.2739 69° East 456 525 31,000 -100 Descending Atlanta Center
Fri 07:45:20 PM 32.7850 -87.1297 69° East 462 532 31,000  Level Atlanta Center
Fri 07:46:20 PM 32.8322 -86.9881 68° East 462 532 31,000  Level Atlanta Center
Fri 07:47:20 PM 32.8794 -86.8461 68° East 462 532 31,000  Level Atlanta Center
Fri 07:48:20 PM 32.9264 -86.7017 69° East 462 532 31,000  Level Atlanta Center
Fri 07:49:20 PM 32.9711 -86.5619 69° East 462 532 31,000  Level Atlanta Center
Fri 07:50:20 PM 33.0156 -86.4194 70° East 462 532 31,000  Level Atlanta Center
Fri 07:51:20 PM 33.0600 -86.2794 69° East 456 525 31,000  Level Atlanta Center
Fri 07:52:20 PM 33.1042 -86.1442 69° East 451 519 31,000  Level Atlanta Center
Fri 07:53:20 PM 33.1483 -85.9989 70° East 446 513 31,000  Level Atlanta Center
Fri 07:54:20 PM 33.1922 -85.8583 70° East 446 513 31,000  Level Atlanta Center
Fri 07:55:20 PM 33.2381 -85.7153 69° East 446 513 31,000  Level Atlanta Center
Fri 07:56:20 PM 33.2817 -85.5744 70° East 446 513 31,000  Level Atlanta Center
Fri 07:57:20 PM 33.3250 -85.4361 69° East 441 507 31,000  Level Atlanta Center
Fri 07:58:20 PM 33.3683 -85.2950 70° East 441 507 31,000  Level Atlanta Center
Fri 07:59:20 PM 33.4136 -85.1486 70° East 451 519 31,000  Level Atlanta Center
Fri 08:00:20 PM 33.4522 -85.0222 70° East 451 519 31,000  Level Atlanta Center
Fri 08:01:20 PM 33.4972 -84.8783 69° East 451 519 31,000  Level Atlanta Center
Fri 08:02:20 PM 33.5397 -84.7342 70° East 457 526 31,000  Level Atlanta Center
Fri 08:03:20 PM 33.5822 -84.5900 70° East 457 526 31,000  Level Atlanta Center
Fri 08:04:20 PM 33.6308 -84.4281 70° East 462 532 31,000  Level Atlanta Center
Fri 08:05:20 PM 33.6708 -84.2833 72° East 462 532 31,000  Level Atlanta Center
Fri 08:06:20 PM 33.7086 -84.1461 72° East 472 543 31,000  Level Atlanta Center
Fri 08:07:20 PM 33.7503 -83.9939 72° East 478 550 31,000  Level Atlanta Center
Fri 08:08:20 PM 33.7942 -83.8439 71° East 478 550 31,000  Level Atlanta Center
Fri 08:09:20 PM 33.8356 -83.6936 72° East 478 550 31,000  Level Atlanta Center
Fri 08:10:20 PM 33.8789 -83.5408 71° East 478 550 31,000  Level Atlanta Center
Fri 08:11:20 PM 33.9219 -83.3953 70° East 478 550 31,000  Level Atlanta Center
Fri 08:12:20 PM 33.9608 -83.2397 73° East 471 542 31,000  Level Atlanta Center
Fri 08:13:20 PM 34.0075 -83.0764 71° East 476 548 31,000  Level Atlanta Center
Fri 08:14:20 PM 34.0481 -82.9206 73° East 476 548 31,000  Level Atlanta Center
Fri 08:15:20 PM 34.0903 -82.7694 71° East 478 550 31,000 -500 Level Atlanta Center
Fri 08:16:20 PM 34.1325 -82.6158 72° East 478 550 30,000 -1,000 Descending Atlanta Center
Fri 08:17:20 PM 34.1683 -82.4672 74° East 464 534 29,000 -1,600 Descending Atlanta Center
Fri 08:18:20 PM 34.2100 -82.3131 72° East 464 534 26,800 -2,450 Descending Atlanta Center
Fri 08:19:20 PM 34.2517 -82.1639 71° East 464 534 24,100 -2,400 Descending Atlanta Center
Fri 08:20:20 PM 34.3272 -82.0567 50° Northeast 431 496 22,000 -2,150 Descending Atlanta Center
Fri 08:21:20 PM 34.4111 -81.9539 45° Northeast 425 489 19,800 -1,550 Descending Atlanta Center
Fri 08:22:20 PM 34.4864 -81.8539 48° Northeast 412 474 18,900 -1,514 Descending Atlanta Center
Fri 08:23:07 PM 34.5558 -81.7714 44° Northeast 411 473 17,100 -2,650 Descending Atlanta Center
Fri 08:24:20 PM 34.6414 -81.6606 47° Northeast 389 448 13,600 -2,662 Descending Atlanta Center
Fri 08:25:20 PM 34.7067 -81.5778 46° Northeast 381 438 11,200 -1,219 Descending Atlanta Center
Fri 08:26:28 PM 34.7692 -81.4747 54° Northeast 292 336 11,000 -500 Descending Atlanta Center
Fri 08:27:20 PM 34.7864 -81.4008 74° East 299 344 10,200 -1,286 Descending Atlanta Center
Fri 08:28:20 PM 34.8117 -81.3092 71° East 289 333 8,600 -1,680 Descending Atlanta Center
Fri 08:28:35 PM 34.8233 -81.2758 67° East 284 327 8,100 -1,500 Descending Atlanta Center
Fri 08:29:20 PM 34.8453 -81.2244 62° Northeast 283 326 7,100 -1,257 Descending Atlanta Center
Fri 08:30:20 PM 34.8789 -81.1447 63° Northeast 267 307 5,900 -1,050 Descending Atlanta Center
Fri 08:31:20 PM 34.9228 -81.0672 55° Northeast 254 292 5,000 -500 Descending Atlanta Center
Fri 08:32:20 PM 34.9672 -81.0100 47° Northeast 243 280 4,900 -469 Descending Atlanta Center
Fri 08:33:28 PM 35.0228 -80.9725 29° Northeast 190 219 4,000 -844 Descending Atlanta Center
Fri 08:34:35 PM 35.0703 -80.9553 17° North 147 169 3,000 -896 Descending Atlanta Center

Login

Don't have an account? Register now (free) for customized features, flight alerts, and more!